Time,TemperatureF,DewpointF,PressureIn,WindDirection,WindDirectionDegrees,WindSpeedMPH,WindSpeedGustMPH,Humidity,HourlyPrecipIn,Conditions,Clouds,dailyrainin,SoftwareType,DateUTC
2013-01-02 00:01:00,23.7,-9.6,30.15,NW,319,21.0,21.0,22,-99.99,,---,-99.99,VWS V14.01,2013-01-02 08:01:00,
2013-01-02 00:06:00,24.4,-8.9,30.15,NNW,341,21.5,21.5,22,-99.99,,---,-99.99,VWS V14.01,2013-01-02 08:06:00,
2013-01-02 00:11:00,24.4,-8.9,30.15,NNW,335,31.1,31.1,22,-99.99,,---,-99.99,VWS V14.01,2013-01-02 08:11:00,
2013-01-02 00:16:00,24.3,-9.1,30.15,NNW,342,27.1,34.4,22,-99.99,,---,-99.99,VWS V14.01,2013-01-02 08:16:00,
2013-01-02 00:21:00,24.3,-9.1,30.15,NNW,329,24.2,24.2,22,-99.99,,---,-99.99,VWS V14.01,2013-01-02 08:21:00,
2013-01-02 00:26:00,24.3,-9.1,30.15,NNW,341,24.6,24.6,22,-99.99,,---,-99.99,VWS V14.01,2013-01-02 08:26:00,
2013-01-02 00:32:00,24.3,-9.1,30.15,NW,325,26.2,28.4,22,-99.99,,---,-99.99,VWS V14.01,2013-01-02 08:32:00,
2013-01-02 00:37:00,24.3,-9.1,30.15,NNW,327,26.2,26.2,22,-99.99,,---,-99.99,VWS V14.01,2013-01-02 08:37:00,
2013-01-02 00:42:00,24.3,-9.1,30.15,NNW,331,25.7,25.7,22,-99.99,,---,-99.99,VWS V14.01,2013-01-02 08:42:00,
2013-01-02 00:47:00,25.0,-9.4,30.15,NNW,336,26.2,26.2,21,-99.99,,---,-99.99,VWS V14.01,2013-01-02 08:47:00,
2013-01-02 00:52:00,25.3,-9.1,30.15,NNW,342,26.2,26.6,21,-99.99,,---,-99.99,VWS V14.01,2013-01-02 08:52:00,
2013-01-02 00:57:00,25.7,-8.8,30.15,NNW,341,30.2,30.2,21,-99.99,,---,-99.99,VWS V14.01,2013-01-02 08:57:00,
2013-01-02 01:02:00,25.7,-8.8,30.15,NNW,348,28.9,28.9,21,-99.99,,---,-99.99,VWS V14.01,2013-01-02 09:02:00,
2013-01-02 01:07:00,25.7,-8.8,30.15,NNW,335,23.7,23.7,21,-99.99,,---,-99.99,VWS V14.01,2013-01-02 09:07:00,
2013-01-02 01:12:00,25.7,-8.8,30.15,NNW,344,24.2,27.5,21,-99.99,,---,-99.99,VWS V14.01,2013-01-02 09:12:00,
2013-01-02 01:17:00,24.6,-8.8,30.15,NNW,343,17.4,17.4,22,-99.99,,---,-99.99,VWS V14.01,2013-01-02 09:17:00,
2013-01-02 01:22:00,24.6,-8.8,30.15,NW,323,21.5,21.5,22,-99.99,,---,-99.99,VWS V14.01,2013-01-02 09:22:00,
2013-01-02 01:27:00,24.6,-8.8,30.15,NNW,343,25.7,25.7,22,-99.99,,---,-99.99,VWS V14.01,2013-01-02 09:27:00,
2013-01-02 01:32:00,24.4,-8.9,30.15,WNW,283,22.4,22.4,22,-99.99,,---,-99.99,VWS V14.01,2013-01-02 09:32:00,
2013-01-02 01:37:00,24.3,-9.1,30.15,NW,315,25.5,25.5,22,-99.99,,---,-99.99,VWS V14.01,2013-01-02 09:37:00,
2013-01-02 01:42:00,24.3,-9.1,30.15,NW,305,25.7,25.7,22,-99.99,,---,-99.99,VWS V14.01,2013-01-02 09:42:00,
2013-01-02 01:47:00,24.3,-9.1,30.15,NNW,341,28.0,28.0,22,-99.99,,---,-99.99,VWS V14.01,2013-01-02 09:47:00,
2013-01-02 01:52:00,24.3,-9.1,30.15,NW,325,16.3,16.3,22,-99.99,,---,-99.99,VWS V14.01,2013-01-02 09:52:00,
2013-01-02 01:57:00,24.8,-8.6,30.15,NNW,330,22.8,22.8,22,-99.99,,---,-99.99,VWS V14.01,2013-01-02 09:57:00,
2013-01-02 02:02:00,26.2,-8.4,30.15,NW,317,28.9,28.9,21,-99.99,,---,-99.99,VWS V14.01,2013-01-02 10:02:00,
2013-01-02 02:07:00,26.2,-8.4,30.15,WNW,283,29.8,29.8,21,-99.99,,---,-99.99,VWS V14.01,2013-01-02 10:07:00,
2013-01-02 02:12:00,26.6,-8.1,30.15,NW,320,27.5,27.5,21,-99.99,,---,-99.99,VWS V14.01,2013-01-02 10:12:00,
2013-01-02 02:17:00,26.6,-8.1,30.15,NW,326,23.7,26.6,21,-99.99,,---,-99.99,VWS V14.01,2013-01-02 10:17:00,
2013-01-02 02:22:00,26.6,-8.1,30.15,NNW,330,23.3,23.3,21,-99.99,,---,-99.99,VWS V14.01,2013-01-02 10:22:00,
2013-01-02 02:27:00,24.8,-8.6,30.12,NW,313,25.7,25.7,22,-99.99,,---,-99.99,VWS V14.01,2013-01-02 10:27:00,
2013-01-02 02:32:00,25.2,-9.3,30.12,NNW,330,23.7,23.7,21,-99.99,,---,-99.99,VWS V14.01,2013-01-02 10:32:00,
2013-01-02 02:37:00,25.3,-9.1,30.12,NW,326,28.9,28.9,21,-99.99,,---,-99.99,VWS V14.01,2013-01-02 10:37:00,
2013-01-02 02:42:00,25.3,-9.1,30.12,NW,304,24.6,24.6,21,-99.99,,---,-99.99,VWS V14.01,2013-01-02 10:42:00,
2013-01-02 02:47:00,25.3,-9.1,30.12,North,357,21.5,21.5,21,-99.99,,---,-99.99,VWS V14.01,2013-01-02 10:47:00,
2013-01-02 02:52:00,25.3,-9.1,30.12,WNW,298,25.7,25.7,21,-99.99,,---,-99.99,VWS V14.01,2013-01-02 10:52:00,
2013-01-02 02:57:00,25.3,-9.1,30.12,WSW,256,28.9,28.9,21,-99.99,,---,-99.99,VWS V14.01,2013-01-02 10:57:00,
2013-01-02 03:02:00,25.3,-9.1,30.12,NNW,333,26.2,26.2,21,-99.99,,---,-99.99,VWS V14.01,2013-01-02 11:02:00,
2013-01-02 03:07:00,25.3,-9.1,30.12,NNW,332,26.2,26.2,21,-99.99,,---,-99.99,VWS V14.01,2013-01-02 11:07:00,
2013-01-02 03:12:00,25.2,-9.3,30.12,NW,322,32.4,32.4,21,-99.99,,---,-99.99,VWS V14.01,2013-01-02 11:12:00,
2013-01-02 03:17:00,25.2,-9.3,30.12,WNW,284,31.1,31.1,21,-99.99,,---,-99.99,VWS V14.01,2013-01-02 11:17:00,
2013-01-02 03:22:00,25.3,-9.1,30.12,NW,320,32.4,32.4,21,-99.99,,---,-99.99,VWS V14.01,2013-01-02 11:22:00,
2013-01-02 03:27:00,25.3,-9.1,30.12,NNW,344,28.9,28.9,21,-99.99,,---,-99.99,VWS V14.01,2013-01-02 11:27:00,
2013-01-02 03:32:00,25.7,-8.8,30.12,NW,313,29.8,29.8,21,-99.99,,---,-99.99,VWS V14.01,2013-01-02 11:32:00,
2013-01-02 03:37:00,26.1,-8.5,30.12,NNW,328,28.9,34.2,21,-99.99,,---,-99.99,VWS V14.01,2013-01-02 11:37:00,
2013-01-02 03:42:00,26.1,-8.5,30.12,WNW,298,26.6,26.6,21,-99.99,,---,-99.99,VWS V14.01,2013-01-02 11:42:00,
2013-01-02 03:47:00,26.2,-8.4,30.12,NNW,328,24.2,24.2,21,-99.99,,---,-99.99,VWS V14.01,2013-01-02 11:47:00,
2013-01-02 03:52:00,26.2,-8.4,30.12,NNW,339,28.0,28.0,21,-99.99,,---,-99.99,VWS V14.01,2013-01-02 11:52:00,
2013-01-02 03:57:00,26.4,-8.2,30.15,NW,306,23.7,23.7,21,-99.99,,---,-99.99,VWS V14.01,2013-01-02 11:57:00,
2013-01-02 04:02:00,26.6,-8.1,30.15,SW,219,22.8,22.8,21,-99.99,,---,-99.99,VWS V14.01,2013-01-02 12:02:00,
2013-01-02 04:07:00,26.6,-8.1,30.15,NW,316,18.3,18.3,21,-99.99,,---,-99.99,VWS V14.01,2013-01-02 12:07:00,
2013-01-02 04:12:00,26.6,-8.1,30.15,NNW,339,22.8,22.8,21,-99.99,,---,-99.99,VWS V14.01,2013-01-02 12:12:00,
2013-01-02 04:17:00,26.6,-8.1,30.15,NNW,328,22.4,35.3,21,-99.99,,---,-99.99,VWS V14.01,2013-01-02 12:17:00,
2013-01-02 04:22:00,27.0,-7.8,30.15,NW,321,22.8,22.8,21,-99.99,,---,-99.99,VWS V14.01,2013-01-02 12:22:00,
2013-01-02 04:27:00,27.0,-7.8,30.15,NNW,327,23.7,23.7,21,-99.99,,---,-99.99,VWS V14.01,2013-01-02 12:27:00,
2013-01-02 04:32:00,27.3,-7.4,30.15,WNW,297,25.1,25.1,21,-99.99,,---,-99.99,VWS V14.01,2013-01-02 12:32:00,
2013-01-02 04:37:00,27.3,-7.4,30.15,North,353,32.0,32.0,21,-99.99,,---,-99.99,VWS V14.01,2013-01-02 12:37:00,
2013-01-02 04:42:00,27.3,-7.4,30.15,WNW,294,28.0,28.0,21,-99.99,,---,-99.99,VWS V14.01,2013-01-02 12:42:00,
2013-01-02 04:47:00,27.5,-7.3,30.15,NNW,331,36.7,36.7,21,-99.99,,---,-99.99,VWS V14.01,2013-01-02 12:47:00,
2013-01-02 04:52:00,27.5,-7.3,30.15,NNW,335,27.1,27.1,21,-99.99,,---,-99.99,VWS V14.01,2013-01-02 12:52:00,
2013-01-02 04:57:00,27.5,-7.3,30.15,WNW,292,26.2,26.2,21,-99.99,,---,-99.99,VWS V14.01,2013-01-02 12:57:00,
2013-01-02 05:02:00,27.5,-7.3,30.15,NW,322,16.8,16.8,21,-99.99,,---,-99.99,VWS V14.01,2013-01-02 13:02:00,
2013-01-02 05:07:00,27.3,-7.4,30.15,NNW,340,28.0,28.0,21,-99.99,,---,-99.99,VWS V14.01,2013-01-02 13:07:00,
2013-01-02 05:12:00,27.3,-7.4,30.15,NNW,344,26.6,26.6,21,-99.99,,---,-99.99,VWS V14.01,2013-01-02 13:12:00,
2013-01-02 05:17:00,27.3,-7.4,30.15,North,0,26.6,26.6,21,-99.99,,---,-99.99,VWS V14.01,2013-01-02 13:17:00,
2013-01-02 05:22:00,27.3,-7.4,30.15,NNW,346,24.6,24.6,21,-99.99,,---,-99.99,VWS V14.01,2013-01-02 13:22:00,
2013-01-02 05:27:00,27.3,-7.4,30.15,NNW,334,30.6,30.6,21,-99.99,,---,-99.99,VWS V14.01,2013-01-02 13:27:00,
2013-01-02 05:32:00,27.7,-7.2,30.15,NW,325,26.2,26.2,21,-99.99,,---,-99.99,VWS V14.01,2013-01-02 13:32:00,
2013-01-02 05:38:00,28.0,-6.8,30.15,NNE,14,28.9,32.4,21,-99.99,,---,-99.99,VWS V14.01,2013-01-02 13:38:00,
2013-01-02 05:43:00,28.0,-6.8,30.15,NNW,342,28.9,28.9,21,-99.99,,---,-99.99,VWS V14.01,2013-01-02 13:43:00,
2013-01-02 05:48:00,28.0,-6.8,30.15,NNW,344,24.2,24.2,21,-99.99,,---,-99.99,VWS V14.01,2013-01-02 13:48:00,
2013-01-02 05:53:00,28.0,-6.8,30.15,NNW,343,22.4,22.4,21,-99.99,,---,-99.99,VWS V14.01,2013-01-02 13:53:00,
2013-01-02 05:58:00,27.9,-7.0,30.15,NNW,332,32.0,32.0,21,-99.99,,---,-99.99,VWS V14.01,2013-01-02 13:58:00,
2013-01-02 06:03:00,27.9,-7.0,30.15,North,0,33.3,33.3,21,-99.99,,---,-99.99,VWS V14.01,2013-01-02 14:03:00,
2013-01-02 06:07:00,27.5,-7.3,30.15,NW,322,32.0,32.0,21,-99.99,,---,-99.99,VWS V14.01,2013-01-02 14:07:00,
2013-01-02 06:12:00,27.9,-7.0,30.15,NNW,328,23.7,25.1,21,-99.99,,---,-99.99,VWS V14.01,2013-01-02 14:12:00,
2013-01-02 06:18:00,27.9,-7.0,30.15,NNW,346,15.9,15.9,21,-99.99,,---,-99.99,VWS V14.01,2013-01-02 14:18:00,
2013-01-02 06:23:00,27.9,-7.0,30.15,NW,323,25.7,25.7,21,-99.99,,---,-99.99,VWS V14.01,2013-01-02 14:23:00,
2013-01-02 06:28:00,27.9,-7.0,30.15,NNW,333,18.3,18.3,21,-99.99,,---,-99.99,VWS V14.01,2013-01-02 14:28:00,
2013-01-02 06:33:00,27.5,-7.3,30.15,NNW,340,12.8,12.8,21,-99.99,,---,-99.99,VWS V14.01,2013-01-02 14:33:00,
2013-01-02 06:38:00,27.5,-7.3,30.15,NNW,342,8.7,8.7,21,-99.99,,---,-99.99,VWS V14.01,2013-01-02 14:38:00,
2013-01-02 06:43:00,27.3,-7.4,30.15,NNW,333,19.7,19.7,21,-99.99,,---,-99.99,VWS V14.01,2013-01-02 14:43:00,
2013-01-02 06:48:00,27.1,-7.6,30.15,North,353,15.4,15.4,21,-99.99,,---,-99.99,VWS V14.01,2013-01-02 14:48:00,
2013-01-02 06:53:00,27.1,-7.6,30.15,North,11,17.9,19.7,21,-99.99,,---,-99.99,VWS V14.01,2013-01-02 14:53:00,
2013-01-02 06:58:00,27.9,-7.0,30.15,North,0,17.4,17.4,21,-99.99,,---,-99.99,VWS V14.01,2013-01-02 14:58:00,
2013-01-02 07:03:00,27.9,-7.0,30.15,NNW,334,17.0,17.4,21,-99.99,,---,-99.99,VWS V14.01,2013-01-02 15:03:00,
2013-01-02 07:08:00,27.7,-7.2,30.15,NNW,334,17.0,17.0,21,-99.99,,---,-99.99,VWS V14.01,2013-01-02 15:08:00,
2013-01-02 07:13:00,28.4,-6.5,30.15,North,353,25.1,25.1,21,-99.99,,---,-99.99,VWS V14.01,2013-01-02 15:13:00,
2013-01-02 07:18:00,28.4,-6.5,30.15,North,353,25.1,25.1,21,-99.99,,---,-99.99,VWS V14.01,2013-01-02 15:18:00,
2013-01-02 07:23:00,28.6,-7.4,30.15,NNW,340,28.0,28.0,20,-99.99,,---,-99.99,VWS V14.01,2013-01-02 15:23:00,
2013-01-02 07:28:00,28.6,-7.4,30.15,NNW,340,28.0,28.0,20,-99.99,,---,-99.99,VWS V14.01,2013-01-02 15:28:00,
2013-01-02 07:33:00,29.3,-6.8,30.15,NNW,340,28.0,28.0,20,-99.99,,---,-99.99,VWS V14.01,2013-01-02 15:33:00,
2013-01-02 07:38:00,29.3,-6.8,30.15,NNW,333,17.4,17.4,20,-99.99,,---,-99.99,VWS V14.01,2013-01-02 15:38:00,
2013-01-02 07:43:00,29.5,-6.6,30.15,NNW,333,17.4,17.4,20,-99.99,,---,-99.99,VWS V14.01,2013-01-02 15:43:00,
2013-01-02 07:48:00,29.8,-6.3,30.15,NNW,346,23.7,23.7,20,-99.99,,---,-99.99,VWS V14.01,2013-01-02 15:48:00,
2013-01-02 07:53:00,30.4,-5.9,30.15,NNW,346,23.7,23.7,20,-99.99,,---,-99.99,VWS V14.01,2013-01-02 15:53:00,
2013-01-02 07:58:00,30.4,-5.9,30.15,North,0,17.4,17.4,20,-99.99,,---,-99.99,VWS V14.01,2013-01-02 15:58:00,
2013-01-02 08:03:00,30.4,-5.9,30.15,North,4,24.2,24.2,20,-99.99,,---,-99.99,VWS V14.01,2013-01-02 16:03:00,
2013-01-02 08:08:00,31.5,-5.0,30.15,North,4,24.2,24.2,20,-99.99,,---,-99.99,VWS V14.01,2013-01-02 16:08:00,
2013-01-02 08:13:00,32.0,-4.5,30.15,North,4,24.2,24.2,20,-99.99,,---,-99.99,VWS V14.01,2013-01-02 16:13:00,
2013-01-02 08:18:00,32.2,-4.4,30.15,North,4,24.2,24.2,20,-99.99,,---,-99.99,VWS V14.01,2013-01-02 16:18:00,
2013-01-02 08:23:00,32.7,-3.9,30.15,North,4,24.2,24.2,20,-99.99,,---,-99.99,VWS V14.01,2013-01-02 16:23:00,
2013-01-02 08:28:00,32.9,-3.8,30.15,North,4,24.2,24.2,20,-99.99,,---,-99.99,VWS V14.01,2013-01-02 16:28:00,
2013-01-02 08:33:00,32.7,-3.9,30.15,North,4,24.2,24.2,20,-99.99,,---,-99.99,VWS V14.01,2013-01-02 16:33:00,
2013-01-02 08:38:00,32.7,-3.9,30.15,North,4,24.2,24.2,20,-99.99,,---,-99.99,VWS V14.01,2013-01-02 16:38:00,
2013-01-02 08:43:00,33.6,-3.2,30.15,North,4,24.2,24.2,20,-99.99,,---,-99.99,VWS V14.01,2013-01-02 16:43:00,
2013-01-02 08:48:00,34.0,-2.9,30.15,North,353,8.3,8.3,20,-99.99,,---,-99.99,VWS V14.01,2013-01-02 16:48:00,
2013-01-02 08:53:00,34.0,-2.9,30.15,North,353,8.3,8.3,20,-99.99,,---,-99.99,VWS V14.01,2013-01-02 16:53:00,
2013-01-02 08:58:00,33.8,-3.0,30.15,North,353,8.3,8.3,20,-99.99,,---,-99.99,VWS V14.01,2013-01-02 16:58:00,
2013-01-02 09:03:00,33.8,-3.0,30.15,North,353,8.3,8.3,20,-99.99,,---,-99.99,VWS V14.01,2013-01-02 17:03:00,
2013-01-02 09:08:00,34.7,-2.3,30.15,North,353,8.3,8.3,20,-99.99,,---,-99.99,VWS V14.01,2013-01-02 17:08:00,
2013-01-02 09:13:00,34.7,-2.3,30.15,North,353,8.3,8.3,20,-99.99,,---,-99.99,VWS V14.01,2013-01-02 17:13:00,
2013-01-02 09:18:00,35.4,-1.6,30.15,North,353,8.3,8.3,20,-99.99,,---,-99.99,VWS V14.01,2013-01-02 17:18:00,
2013-01-02 09:23:00,35.4,-1.6,30.15,North,353,8.3,8.3,20,-99.99,,---,-99.99,VWS V14.01,2013-01-02 17:23:00,
2013-01-02 09:28:00,35.6,-2.6,30.15,North,353,8.3,8.3,19,-99.99,,---,-99.99,VWS V14.01,2013-01-02 17:28:00,
2013-01-02 09:33:00,35.1,-2.0,30.15,North,353,8.3,8.3,20,-99.99,,---,-99.99,VWS V14.01,2013-01-02 17:33:00,
2013-01-02 09:38:00,35.1,-2.0,30.15,North,353,8.3,8.3,20,-99.99,,---,-99.99,VWS V14.01,2013-01-02 17:38:00,
2013-01-02 09:43:00,35.1,-2.0,30.15,North,353,8.3,8.3,20,-99.99,,---,-99.99,VWS V14.01,2013-01-02 17:43:00,
2013-01-02 09:48:00,34.9,-2.1,30.15,North,353,8.3,8.3,20,-99.99,,---,-99.99,VWS V14.01,2013-01-02 17:48:00,
2013-01-02 09:53:00,34.7,-2.3,30.15,North,353,8.3,8.3,20,-99.99,,---,-99.99,VWS V14.01,2013-01-02 17:53:00,
2013-01-02 09:58:00,34.3,-2.6,30.15,North,353,8.3,8.3,20,-99.99,,---,-99.99,VWS V14.01,2013-01-02 17:58:00,
2013-01-02 10:03:00,34.5,-2.4,30.12,North,353,8.3,8.3,20,-99.99,,---,-99.99,VWS V14.01,2013-01-02 18:03:00,
2013-01-02 10:08:00,34.2,-2.7,30.12,North,353,8.3,8.3,20,-99.99,,---,-99.99,VWS V14.01,2013-01-02 18:08:00,
2013-01-02 10:13:00,34.2,-2.7,30.12,North,353,8.3,8.3,20,-99.99,,---,-99.99,VWS V14.01,2013-01-02 18:13:00,
2013-01-02 10:18:00,34.2,-2.7,30.12,North,353,8.3,8.3,20,-99.99,,---,-99.99,VWS V14.01,2013-01-02 18:18:00,
2013-01-02 10:23:00,34.3,-2.6,30.15,North,353,8.3,8.3,20,-99.99,,---,-99.99,VWS V14.01,2013-01-02 18:23:00,
2013-01-02 10:28:00,34.3,-2.6,30.15,North,353,8.3,8.3,20,-99.99,,---,-99.99,VWS V14.01,2013-01-02 18:28:00,
2013-01-02 10:33:00,34.7,-2.3,30.15,North,353,8.3,8.3,20,-99.99,,---,-99.99,VWS V14.01,2013-01-02 18:33:00,
2013-01-02 10:38:00,34.7,-2.3,30.15,NNW,341,19.7,19.7,20,-99.99,,---,-99.99,VWS V14.01,2013-01-02 18:38:00,
2013-01-02 10:43:00,33.4,-3.3,30.15,NNE,15,17.0,24.2,20,-99.99,,---,-99.99,VWS V14.01,2013-01-02 18:43:00,
2013-01-02 10:48:00,33.8,-3.0,30.15,NNW,338,24.2,24.2,20,-99.99,,---,-99.99,VWS V14.01,2013-01-02 18:48:00,
2013-01-02 10:53:00,33.8,-3.0,30.15,NNW,340,26.6,26.6,20,-99.99,,---,-99.99,VWS V14.01,2013-01-02 18:53:00,
2013-01-02 10:58:00,33.8,-3.0,30.15,NNW,330,25.5,25.5,20,-99.99,,---,-99.99,VWS V14.01,2013-01-02 18:58:00,
2013-01-02 11:03:00,33.8,-3.0,30.15,NNW,340,25.5,25.5,20,-99.99,,---,-99.99,VWS V14.01,2013-01-02 19:03:00,
2013-01-02 11:08:00,33.8,-3.0,30.15,NNW,335,25.5,25.5,20,-99.99,,---,-99.99,VWS V14.01,2013-01-02 19:08:00,
2013-01-02 11:13:00,33.8,-3.0,30.15,NNW,338,28.4,28.4,20,-99.99,,---,-99.99,VWS V14.01,2013-01-02 19:13:00,
2013-01-02 11:18:00,33.8,-3.0,30.15,North,349,32.0,32.0,20,-99.99,,---,-99.99,VWS V14.01,2013-01-02 19:18:00,
2013-01-02 11:23:00,33.8,-3.0,30.15,NW,317,26.2,26.2,20,-99.99,,---,-99.99,VWS V14.01,2013-01-02 19:23:00,
2013-01-02 11:28:00,33.8,-3.0,30.15,NNW,329,25.5,25.5,20,-99.99,,---,-99.99,VWS V14.01,2013-01-02 19:28:00,
2013-01-02 11:33:00,33.8,-3.0,30.15,NNW,338,17.4,17.4,20,-99.99,,---,-99.99,VWS V14.01,2013-01-02 19:33:00,
2013-01-02 11:38:00,33.8,-3.0,30.15,NNW,342,28.4,28.4,20,-99.99,,---,-99.99,VWS V14.01,2013-01-02 19:38:00,
2013-01-02 11:43:00,33.8,-3.0,30.12,NNW,344,23.3,23.3,20,-99.99,,---,-99.99,VWS V14.01,2013-01-02 19:43:00,
2013-01-02 11:48:00,33.8,-3.0,30.12,North,353,30.2,30.2,20,-99.99,,---,-99.99,VWS V14.01,2013-01-02 19:48:00,
2013-01-02 11:53:00,33.8,-3.0,30.12,NNW,343,28.0,28.0,20,-99.99,,---,-99.99,VWS V14.01,2013-01-02 19:53:00,
2013-01-02 11:58:00,33.8,-3.0,30.12,NNW,331,31.1,31.1,20,-99.99,,---,-99.99,VWS V14.01,2013-01-02 19:58:00,
2013-01-02 12:03:00,34.9,-2.1,30.12,NNW,340,26.6,28.4,20,-99.99,,---,-99.99,VWS V14.01,2013-01-02 20:03:00,
2013-01-02 12:08:00,34.9,-2.1,30.12,NNW,336,25.7,25.7,20,-99.99,,---,-99.99,VWS V14.01,2013-01-02 20:08:00,
2013-01-02 12:13:00,34.9,-2.1,30.12,NW,322,13.6,13.6,20,-99.99,,---,-99.99,VWS V14.01,2013-01-02 20:13:00,
2013-01-02 12:18:00,34.9,-2.1,30.12,NNW,344,26.2,26.2,20,-99.99,,---,-99.99,VWS V14.01,2013-01-02 20:18:00,
2013-01-02 12:23:00,34.9,-2.1,30.12,NW,319,21.9,21.9,20,-99.99,,---,-99.99,VWS V14.01,2013-01-02 20:23:00,
2013-01-02 12:28:00,34.9,-2.1,30.12,North,350,21.5,21.5,20,-99.99,,---,-99.99,VWS V14.01,2013-01-02 20:28:00,
2013-01-02 12:33:00,34.9,-2.1,30.12,North,0,23.7,23.7,20,-99.99,,---,-99.99,VWS V14.01,2013-01-02 20:33:00,
2013-01-02 12:38:00,36.7,1.4,30.12,North,357,26.6,26.6,22,-99.99,,---,-99.99,VWS V14.01,2013-01-02 20:38:00,
2013-01-02 12:43:00,36.7,1.4,30.12,NNW,338,25.5,25.5,22,-99.99,,---,-99.99,VWS V14.01,2013-01-02 20:43:00,
2013-01-02 12:48:00,36.7,1.4,30.12,North,353,13.2,13.2,22,-99.99,,---,-99.99,VWS V14.01,2013-01-02 20:48:00,
2013-01-02 12:53:00,36.7,1.4,30.12,NNW,333,25.1,25.1,22,-99.99,,---,-99.99,VWS V14.01,2013-01-02 20:53:00,
2013-01-02 12:58:00,36.7,1.4,30.12,NNW,330,8.7,8.7,22,-99.99,,---,-99.99,VWS V14.01,2013-01-02 20:58:00,
2013-01-02 13:03:00,36.7,1.4,30.12,WNW,297,17.0,17.0,22,-99.99,,---,-99.99,VWS V14.01,2013-01-02 21:03:00,
2013-01-02 13:08:00,36.7,1.4,30.12,NW,306,16.3,16.3,22,-99.99,,---,-99.99,VWS V14.01,2013-01-02 21:08:00,
2013-01-02 13:13:00,36.7,1.4,30.12,WNW,290,12.8,12.8,22,-99.99,,---,-99.99,VWS V14.01,2013-01-02 21:13:00,
2013-01-02 13:18:00,36.7,1.4,30.12,NNW,331,23.7,23.7,22,-99.99,,---,-99.99,VWS V14.01,2013-01-02 21:18:00,
2013-01-02 13:23:00,36.1,-2.1,30.12,NNW,332,22.8,22.8,19,-99.99,,---,-99.99,VWS V14.01,2013-01-02 21:23:00,
2013-01-02 13:28:00,36.1,-2.1,30.12,WNW,287,17.9,17.9,19,-99.99,,---,-99.99,VWS V14.01,2013-01-02 21:28:00,
2013-01-02 13:33:00,36.1,-2.1,30.12,NW,305,18.8,18.8,19,-99.99,,---,-99.99,VWS V14.01,2013-01-02 21:33:00,
2013-01-02 13:38:00,36.1,-2.1,30.12,NW,312,25.1,25.1,19,-99.99,,---,-99.99,VWS V14.01,2013-01-02 21:38:00,
2013-01-02 13:43:00,35.8,-2.4,30.12,NW,308,11.9,11.9,19,-99.99,,---,-99.99,VWS V14.01,2013-01-02 21:43:00,
2013-01-02 13:48:00,35.8,-2.4,30.12,NNW,335,25.7,25.7,19,-99.99,,---,-99.99,VWS V14.01,2013-01-02 21:48:00,
2013-01-02 13:53:00,36.1,-2.1,30.12,NNW,335,25.7,25.7,19,-99.99,,---,-99.99,VWS V14.01,2013-01-02 21:53:00,
2013-01-02 13:58:00,36.1,-2.1,30.12,WNW,300,23.3,23.3,19,-99.99,,---,-99.99,VWS V14.01,2013-01-02 21:58:00,
2013-01-02 14:03:00,36.1,-2.1,30.12,WNW,302,12.8,17.4,19,-99.99,,---,-99.99,VWS V14.01,2013-01-02 22:03:00,
2013-01-02 14:08:00,35.6,-2.6,30.12,WNW,302,12.8,12.8,19,-99.99,,---,-99.99,VWS V14.01,2013-01-02 22:08:00,
2013-01-02 14:13:00,35.6,-2.6,30.12,NNW,328,28.9,28.9,19,-99.99,,---,-99.99,VWS V14.01,2013-01-02 22:13:00,
2013-01-02 14:18:00,35.6,-2.6,30.12,NW,313,16.8,16.8,19,-99.99,,---,-99.99,VWS V14.01,2013-01-02 22:18:00,
2013-01-02 14:23:00,35.6,-2.6,30.12,NW,310,24.2,24.2,19,-99.99,,---,-99.99,VWS V14.01,2013-01-02 22:23:00,
2013-01-02 14:28:00,35.4,-1.6,30.12,NW,310,24.2,24.2,20,-99.99,,---,-99.99,VWS V14.01,2013-01-02 22:28:00,
2013-01-02 14:33:00,35.2,-1.8,30.12,NW,311,19.2,19.2,20,-99.99,,---,-99.99,VWS V14.01,2013-01-02 22:33:00,
2013-01-02 14:38:00,35.2,-1.8,30.12,NW,317,14.5,14.5,20,-99.99,,---,-99.99,VWS V14.01,2013-01-02 22:38:00,
2013-01-02 14:43:00,35.2,-1.8,30.12,NW,317,14.5,14.5,20,-99.99,,---,-99.99,VWS V14.01,2013-01-02 22:43:00,
2013-01-02 14:48:00,35.2,-1.8,30.12,NW,320,25.5,25.5,20,-99.99,,---,-99.99,VWS V14.01,2013-01-02 22:48:00,
2013-01-02 14:54:00,35.1,-2.0,30.12,NW,320,25.5,25.5,20,-99.99,,---,-99.99,VWS V14.01,2013-01-02 22:54:00,
2013-01-02 14:59:00,35.1,-2.0,30.12,WNW,294,15.0,15.0,20,-99.99,,---,-99.99,VWS V14.01,2013-01-02 22:59:00,
2013-01-02 15:04:00,35.1,-2.0,30.12,NW,321,22.8,26.2,20,-99.99,,---,-99.99,VWS V14.01,2013-01-02 23:04:00,
2013-01-02 15:09:00,34.7,-2.3,30.12,NW,314,23.7,23.7,20,-99.99,,---,-99.99,VWS V14.01,2013-01-02 23:09:00,
2013-01-02 15:14:00,34.7,-2.3,30.12,NW,313,17.9,17.9,20,-99.99,,---,-99.99,VWS V14.01,2013-01-02 23:14:00,
2013-01-02 15:19:00,34.7,-2.3,30.12,NW,313,17.9,17.9,20,-99.99,,---,-99.99,VWS V14.01,2013-01-02 23:19:00,
2013-01-02 15:24:00,34.3,-2.6,30.12,NW,316,17.0,17.0,20,-99.99,,---,-99.99,VWS V14.01,2013-01-02 23:24:00,
2013-01-02 15:29:00,34.3,-2.6,30.12,NW,304,20.6,20.6,20,-99.99,,---,-99.99,VWS V14.01,2013-01-02 23:29:00,
2013-01-02 15:34:00,34.3,-2.6,30.12,WNW,288,23.7,23.7,20,-99.99,,---,-99.99,VWS V14.01,2013-01-02 23:34:00,
2013-01-02 15:39:00,34.3,-2.6,30.12,West,268,22.8,22.8,20,-99.99,,---,-99.99,VWS V14.01,2013-01-02 23:39:00,
2013-01-02 15:44:00,34.5,-2.4,30.12,NW,307,24.6,24.6,20,-99.99,,---,-99.99,VWS V14.01,2013-01-02 23:44:00,
2013-01-02 15:49:00,34.3,-2.6,30.12,WNW,289,19.2,19.2,20,-99.99,,---,-99.99,VWS V14.01,2013-01-02 23:49:00,
2013-01-02 15:54:00,34.3,-2.6,30.12,WNW,289,19.2,19.2,20,-99.99,,---,-99.99,VWS V14.01,2013-01-02 23:54:00,
2013-01-02 15:59:00,34.9,-2.1,30.12,NW,324,15.4,15.4,20,-99.99,,---,-99.99,VWS V14.01,2013-01-02 23:59:00,
2013-01-02 16:04:00,35.1,-2.0,30.12,NW,308,21.9,21.9,20,-99.99,,---,-99.99,VWS V14.01,2013-01-03 00:04:00,
2013-01-02 16:09:00,35.1,-2.0,30.12,NNW,331,19.2,19.2,20,-99.99,,---,-99.99,VWS V14.01,2013-01-03 00:09:00,
2013-01-02 16:14:00,35.1,-2.0,30.12,WNW,303,17.4,17.4,20,-99.99,,---,-99.99,VWS V14.01,2013-01-03 00:14:00,
2013-01-02 16:19:00,34.5,-2.4,30.12,NW,308,16.8,16.8,20,-99.99,,---,-99.99,VWS V14.01,2013-01-03 00:19:00,
2013-01-02 16:24:00,34.0,-2.9,30.12,WNW,303,17.4,17.4,20,-99.99,,---,-99.99,VWS V14.01,2013-01-03 00:24:00,
2013-01-02 16:29:00,33.8,-3.0,30.12,WNW,303,17.4,17.4,20,-99.99,,---,-99.99,VWS V14.01,2013-01-03 00:29:00,
2013-01-02 16:34:00,33.3,-3.5,30.12,WSW,257,19.7,19.7,20,-99.99,,---,-99.99,VWS V14.01,2013-01-03 00:34:00,
2013-01-02 16:39:00,33.3,-3.5,30.12,WNW,294,20.1,20.1,20,-99.99,,---,-99.99,VWS V14.01,2013-01-03 00:39:00,
2013-01-02 16:44:00,33.3,-3.5,30.12,NW,312,17.9,17.9,20,-99.99,,---,-99.99,VWS V14.01,2013-01-03 00:44:00,
2013-01-02 16:49:00,34.0,-2.9,30.12,WNW,299,21.5,21.5,20,-99.99,,---,-99.99,VWS V14.01,2013-01-03 00:49:00,
2013-01-02 16:54:00,33.8,-3.0,30.12,WNW,297,17.9,17.9,20,-99.99,,---,-99.99,VWS V14.01,2013-01-03 00:54:00,
2013-01-02 16:59:00,33.8,-3.0,30.12,NW,320,17.4,17.4,20,-99.99,,---,-99.99,VWS V14.01,2013-01-03 00:59:00,
2013-01-02 17:04:00,33.8,-3.0,30.12,NW,320,17.4,17.4,20,-99.99,,---,-99.99,VWS V14.01,2013-01-03 01:04:00,
2013-01-02 17:09:00,33.6,-3.2,30.12,NW,308,16.8,16.8,20,-99.99,,---,-99.99,VWS V14.01,2013-01-03 01:09:00,
2013-01-02 17:14:00,33.4,-3.3,30.12,NNW,328,16.3,16.3,20,-99.99,,---,-99.99,VWS V14.01,2013-01-03 01:14:00,
2013-01-02 17:19:00,33.4,-3.3,30.12,NW,309,17.4,17.4,20,-99.99,,---,-99.99,VWS V14.01,2013-01-03 01:19:00,
2013-01-02 17:24:00,33.4,-3.3,30.12,NNW,338,22.4,22.4,20,-99.99,,---,-99.99,VWS V14.01,2013-01-03 01:24:00,
2013-01-02 17:29:00,33.4,-3.3,30.12,NNW,338,22.4,22.4,20,-99.99,,---,-99.99,VWS V14.01,2013-01-03 01:29:00,
2013-01-02 17:35:00,33.1,-3.6,30.12,NNW,338,22.4,22.4,20,-99.99,,---,-99.99,VWS V14.01,2013-01-03 01:35:00,
2013-01-02 17:40:00,33.1,-3.6,30.18,WNW,294,22.4,24.2,20,-99.99,,---,-99.99,VWS V14.01,2013-01-03 01:40:00,
2013-01-02 17:45:00,32.9,-3.8,30.18,WNW,294,22.4,22.4,20,-99.99,,---,-99.99,VWS V14.01,2013-01-03 01:45:00,
2013-01-02 17:50:00,32.9,-3.8,30.18,NNW,346,22.4,22.4,20,-99.99,,---,-99.99,VWS V14.01,2013-01-03 01:50:00,
2013-01-02 17:55:00,32.9,-3.8,30.18,NNW,329,20.1,20.1,20,-99.99,,---,-99.99,VWS V14.01,2013-01-03 01:55:00,
2013-01-02 18:00:00,33.3,-3.5,30.18,WNW,298,17.4,17.4,20,-99.99,,---,-99.99,VWS V14.01,2013-01-03 02:00:00,
2013-01-02 18:05:00,33.3,-3.5,30.15,NW,306,15.0,15.0,20,-99.99,,---,-99.99,VWS V14.01,2013-01-03 02:05:00,
2013-01-02 18:10:00,33.3,-3.5,30.15,NW,321,14.1,14.1,20,-99.99,,---,-99.99,VWS V14.01,2013-01-03 02:10:00,
2013-01-02 18:15:00,33.3,-3.5,30.15,NNW,339,15.4,19.7,20,-99.99,,---,-99.99,VWS V14.01,2013-01-03 02:15:00,
2013-01-02 18:20:00,33.6,-3.2,30.15,NNW,339,15.4,15.4,20,-99.99,,---,-99.99,VWS V14.01,2013-01-03 02:20:00,
2013-01-02 18:25:00,34.0,-2.9,30.15,NNW,348,21.9,21.9,20,-99.99,,---,-99.99,VWS V14.01,2013-01-03 02:25:00,
2013-01-02 18:30:00,34.0,-2.9,30.15,NNW,339,30.6,30.6,20,-99.99,,---,-99.99,VWS V14.01,2013-01-03 02:30:00,
2013-01-02 18:35:00,33.8,-3.0,30.15,WNW,292,17.0,17.0,20,-99.99,,---,-99.99,VWS V14.01,2013-01-03 02:35:00,
2013-01-02 18:40:00,33.8,-3.0,30.12,North,9,19.7,19.7,20,-99.99,,---,-99.99,VWS V14.01,2013-01-03 02:40:00,
2013-01-02 18:45:00,33.8,-3.0,30.12,NNW,335,15.9,15.9,20,-99.99,,---,-99.99,VWS V14.01,2013-01-03 02:45:00,
2013-01-02 18:50:00,33.6,-3.2,30.15,WNW,297,18.8,18.8,20,-99.99,,---,-99.99,VWS V14.01,2013-01-03 02:50:00,
2013-01-02 18:55:00,33.6,-3.2,30.15,WNW,297,18.8,18.8,20,-99.99,,---,-99.99,VWS V14.01,2013-01-03 02:55:00,
2013-01-02 19:00:00,33.6,-3.2,30.15,NW,325,19.2,19.2,20,-99.99,,---,-99.99,VWS V14.01,2013-01-03 03:00:00,
2013-01-02 19:05:00,33.6,-3.2,30.15,NNW,338,19.2,19.2,20,-99.99,,---,-99.99,VWS V14.01,2013-01-03 03:05:00,
2013-01-02 19:10:00,33.6,-3.2,30.15,WNW,299,16.3,16.3,20,-99.99,,---,-99.99,VWS V14.01,2013-01-03 03:10:00,
2013-01-02 19:15:00,33.8,-3.0,30.15,North,0,16.3,16.3,20,-99.99,,---,-99.99,VWS V14.01,2013-01-03 03:15:00,
2013-01-02 19:20:00,34.0,-2.9,30.15,North,0,16.3,16.3,20,-99.99,,---,-99.99,VWS V14.01,2013-01-03 03:20:00,
2013-01-02 19:25:00,33.8,-3.0,30.15,NNW,328,22.4,22.4,20,-99.99,,---,-99.99,VWS V14.01,2013-01-03 03:25:00,
2013-01-02 19:31:00,33.8,-3.0,30.15,NNW,328,22.4,22.4,20,-99.99,,---,-99.99,VWS V14.01,2013-01-03 03:31:00,
2013-01-02 19:36:00,34.0,-2.9,30.15,NW,310,15.4,15.4,20,-99.99,,---,-99.99,VWS V14.01,2013-01-03 03:36:00,
2013-01-02 19:41:00,34.0,-2.9,30.15,NNW,345,32.4,32.4,20,-99.99,,---,-99.99,VWS V14.01,2013-01-03 03:41:00,
2013-01-02 19:46:00,33.6,-3.2,30.15,NNW,332,17.4,17.4,20,-99.99,,---,-99.99,VWS V14.01,2013-01-03 03:46:00,
2013-01-02 19:51:00,33.8,-3.0,30.15,NW,321,21.0,21.0,20,-99.99,,---,-99.99,VWS V14.01,2013-01-03 03:51:00,
2013-01-02 19:56:00,33.8,-3.0,30.15,NNW,336,15.0,15.0,20,-99.99,,---,-99.99,VWS V14.01,2013-01-03 03:56:00,
2013-01-02 20:01:00,34.0,-2.9,30.15,NNW,342,23.3,23.3,20,-99.99,,---,-99.99,VWS V14.01,2013-01-03 04:01:00,
2013-01-02 20:06:00,34.0,-2.9,30.15,WNW,294,27.1,27.1,20,-99.99,,---,-99.99,VWS V14.01,2013-01-03 04:06:00,
2013-01-02 20:11:00,34.3,-2.6,30.15,WNW,294,27.1,27.1,20,-99.99,,---,-99.99,VWS V14.01,2013-01-03 04:11:00,
2013-01-02 20:16:00,34.3,-2.6,30.15,NNW,337,16.8,16.8,20,-99.99,,---,-99.99,VWS V14.01,2013-01-03 04:16:00,
2013-01-02 20:21:00,34.3,-2.6,30.15,North,8,22.8,22.8,20,-99.99,,---,-99.99,VWS V14.01,2013-01-03 04:21:00,
2013-01-02 20:26:00,34.3,-2.6,30.15,North,353,21.9,21.9,20,-99.99,,---,-99.99,VWS V14.01,2013-01-03 04:26:00,
2013-01-02 20:31:00,34.3,-2.6,30.15,NNW,337,18.8,19.7,20,-99.99,,---,-99.99,VWS V14.01,2013-01-03 04:31:00,
2013-01-02 20:37:00,34.3,-2.6,30.15,NW,310,26.2,26.2,20,-99.99,,---,-99.99,VWS V14.01,2013-01-03 04:37:00,
2013-01-02 20:42:00,34.5,-2.4,30.15,NNW,345,12.8,23.7,20,-99.99,,---,-99.99,VWS V14.01,2013-01-03 04:42:00,
2013-01-02 20:47:00,34.5,-2.4,30.15,NNW,345,12.8,12.8,20,-99.99,,---,-99.99,VWS V14.01,2013-01-03 04:47:00,
2013-01-02 20:52:00,34.5,-2.4,30.15,NNW,338,25.1,25.1,20,-99.99,,---,-99.99,VWS V14.01,2013-01-03 04:52:00,
2013-01-02 20:57:00,34.5,-2.4,30.15,NNW,328,11.0,11.0,20,-99.99,,---,-99.99,VWS V14.01,2013-01-03 04:57:00,
2013-01-02 21:00:00,35.1,-2.0,30.15,WNW,285,16.8,16.8,20,-99.99,,---,-99.99,VWS V14.01,2013-01-03 05:00:00,
2013-01-02 21:01:00,35.1,-2.0,30.15,WNW,285,16.8,16.8,20,-99.99,,---,-99.99,VWS V14.01,2013-01-03 05:01:00,
2013-01-02 21:03:00,35.1,-2.0,30.15,WNW,301,19.7,19.7,20,-99.99,,---,-99.99,VWS V14.01,2013-01-03 05:03:00,
2013-01-02 21:08:00,35.1,-2.0,30.15,NNW,332,17.4,17.4,20,-99.99,,---,-99.99,VWS V14.01,2013-01-03 05:08:00,
2013-01-02 21:13:00,35.1,-2.0,30.15,NW,322,21.9,21.9,20,-99.99,,---,-99.99,VWS V14.01,2013-01-03 05:13:00,
2013-01-02 21:18:00,35.6,-2.6,30.15,NNW,340,26.2,26.2,19,-99.99,,---,-99.99,VWS V14.01,2013-01-03 05:18:00,
2013-01-02 21:23:00,35.6,-2.6,30.15,NNW,340,26.2,26.2,19,-99.99,,---,-99.99,VWS V14.01,2013-01-03 05:23:00,
2013-01-02 21:28:00,35.8,-2.4,30.15,NW,322,21.9,21.9,19,-99.99,,---,-99.99,VWS V14.01,2013-01-03 05:28:00,
2013-01-02 21:33:00,35.6,-2.6,30.15,NNW,335,21.9,21.9,19,-99.99,,---,-99.99,VWS V14.01,2013-01-03 05:33:00,
2013-01-02 21:38:00,35.4,-1.6,30.15,NNW,336,24.6,24.6,20,-99.99,,---,-99.99,VWS V14.01,2013-01-03 05:38:00,
2013-01-02 21:43:00,35.6,-2.6,30.15,NNW,336,24.6,24.6,19,-99.99,,---,-99.99,VWS V14.01,2013-01-03 05:43:00,
2013-01-02 21:48:00,35.6,-2.6,30.15,NNW,333,11.9,11.9,19,-99.99,,---,-99.99,VWS V14.01,2013-01-03 05:48:00,
2013-01-02 21:53:00,35.4,-1.6,30.15,NW,306,17.9,17.9,20,-99.99,,---,-99.99,VWS V14.01,2013-01-03 05:53:00,
2013-01-02 21:58:00,35.4,-1.6,30.15,NW,306,17.9,17.9,20,-99.99,,---,-99.99,VWS V14.01,2013-01-03 05:58:00,
2013-01-02 22:03:00,35.6,-2.6,30.15,NNW,343,21.9,21.9,19,-99.99,,---,-99.99,VWS V14.01,2013-01-03 06:03:00,
2013-01-02 22:08:00,35.6,-2.6,30.15,West,267,11.0,11.0,19,-99.99,,---,-99.99,VWS V14.01,2013-01-03 06:08:00,
2013-01-02 22:13:00,35.6,-2.6,30.15,NW,313,20.1,20.1,19,-99.99,,---,-99.99,VWS V14.01,2013-01-03 06:13:00,
2013-01-02 22:18:00,34.9,-2.1,30.15,NW,313,20.1,20.1,20,-99.99,,---,-99.99,VWS V14.01,2013-01-03 06:18:00,
2013-01-02 22:23:00,34.9,-2.1,30.15,North,357,15.4,15.4,20,-99.99,,---,-99.99,VWS V14.01,2013-01-03 06:23:00,
2013-01-02 22:28:00,35.4,-1.6,30.15,NNW,334,19.2,19.2,20,-99.99,,---,-99.99,VWS V14.01,2013-01-03 06:28:00,
2013-01-02 22:33:00,35.4,-1.6,30.15,NNW,338,15.4,19.2,20,-99.99,,---,-99.99,VWS V14.01,2013-01-03 06:33:00,
2013-01-02 22:38:00,35.4,-1.6,30.15,NNW,338,15.4,15.4,20,-99.99,,---,-99.99,VWS V14.01,2013-01-03 06:38:00,
2013-01-02 22:43:00,35.2,-1.8,30.15,NNW,328,23.7,23.7,20,-99.99,,---,-99.99,VWS V14.01,2013-01-03 06:43:00,
2013-01-02 22:48:00,35.2,-1.8,30.18,NW,314,19.7,19.7,20,-99.99,,---,-99.99,VWS V14.01,2013-01-03 06:48:00,
2013-01-02 22:53:00,35.2,-1.8,30.18,NW,314,19.7,19.7,20,-99.99,,---,-99.99,VWS V14.01,2013-01-03 06:53:00,
2013-01-02 22:58:00,35.2,-1.8,30.18,North,353,16.8,16.8,20,-99.99,,---,-99.99,VWS V14.01,2013-01-03 06:58:00,
2013-01-02 23:03:00,34.7,-2.3,30.18,NW,304,17.4,17.4,20,-99.99,,---,-99.99,VWS V14.01,2013-01-03 07:03:00,
2013-01-02 23:08:00,34.5,-2.4,30.15,NW,326,13.6,17.4,20,-99.99,,---,-99.99,VWS V14.01,2013-01-03 07:08:00,
2013-01-02 23:13:00,34.7,-2.3,30.15,NW,326,13.6,13.6,20,-99.99,,---,-99.99,VWS V14.01,2013-01-03 07:13:00,
2013-01-02 23:18:00,34.3,-2.6,30.15,NNW,340,17.0,17.0,20,-99.99,,---,-99.99,VWS V14.01,2013-01-03 07:18:00,
2013-01-02 23:23:00,34.3,-2.6,30.15,NNW,330,19.7,19.7,20,-99.99,,---,-99.99,VWS V14.01,2013-01-03 07:23:00,
2013-01-02 23:28:00,34.2,-2.7,30.15,NNW,330,19.7,19.7,20,-99.99,,---,-99.99,VWS V14.01,2013-01-03 07:28:00,
2013-01-02 23:33:00,34.3,-2.6,30.15,WNW,288,10.5,14.1,20,-99.99,,---,-99.99,VWS V14.01,2013-01-03 07:33:00,
2013-01-02 23:38:00,34.3,-2.6,30.15,NNW,328,15.4,15.4,20,-99.99,,---,-99.99,VWS V14.01,2013-01-03 07:38:00,
2013-01-02 23:44:00,34.3,-2.6,30.15,NNW,328,15.4,15.4,20,-99.99,,---,-99.99,VWS V14.01,2013-01-03 07:44:00,
2013-01-02 23:49:00,34.2,-2.7,30.15,NNW,328,15.4,15.4,20,-99.99,,---,-99.99,VWS V14.01,2013-01-03 07:49:00,
2013-01-02 23:54:00,33.6,-3.2,30.15,NNW,328,15.4,15.4,20,-99.99,,---,-99.99,VWS V14.01,2013-01-03 07:54:00,
2013-01-02 23:59:00,33.6,-3.2,30.15,NNW,328,15.4,15.4,20,-99.99,,---,-99.99,VWS V14.01,2013-01-03 07:59:00,